sensor_id;sensor_type;location;lat;lon;timestamp;P1;durP1;ratioP1;P2;durP2;ratioP2
19026;SDS011;9646;52.034;5.554;2022-12-18T00:01:59;27.70;;;16.20;;
19026;SDS011;9646;52.034;5.554;2022-12-18T00:04:27;29.08;;;16.20;;
19026;SDS011;9646;52.034;5.554;2022-12-18T00:06:54;13.25;;;6.97;;
19026;SDS011;9646;52.034;5.554;2022-12-18T00:09:21;16.35;;;8.98;;
19026;SDS011;9646;52.034;5.554;2022-12-18T00:11:48;17.63;;;10.00;;
19026;SDS011;9646;52.034;5.554;2022-12-18T00:14:15;20.17;;;10.15;;
19026;SDS011;9646;52.034;5.554;2022-12-18T00:16:44;22.30;;;11.13;;
19026;SDS011;9646;52.034;5.554;2022-12-18T00:19:12;23.70;;;11.60;;
19026;SDS011;9646;52.034;5.554;2022-12-18T00:21:39;23.75;;;12.88;;
19026;SDS011;9646;52.034;5.554;2022-12-18T00:24:07;24.17;;;12.80;;
19026;SDS011;9646;52.034;5.554;2022-12-18T00:26:35;25.08;;;12.93;;
19026;SDS011;9646;52.034;5.554;2022-12-18T00:29:03;26.98;;;13.65;;
19026;SDS011;9646;52.034;5.554;2022-12-18T00:31:30;35.22;;;19.77;;
19026;SDS011;9646;52.034;5.554;2022-12-18T00:33:59;31.52;;;17.50;;
19026;SDS011;9646;52.034;5.554;2022-12-18T00:36:27;38.85;;;19.83;;
19026;SDS011;9646;52.034;5.554;2022-12-18T00:38:54;33.83;;;18.50;;
19026;SDS011;9646;52.034;5.554;2022-12-18T00:41:21;33.55;;;18.42;;
19026;SDS011;9646;52.034;5.554;2022-12-18T00:44:07;26.98;;;15.73;;
19026;SDS011;9646;52.034;5.554;2022-12-18T00:46:34;39.33;;;18.63;;
19026;SDS011;9646;52.034;5.554;2022-12-18T00:49:02;29.75;;;17.40;;
19026;SDS011;9646;52.034;5.554;2022-12-18T00:51:30;32.72;;;17.85;;
19026;SDS011;9646;52.034;5.554;2022-12-18T00:53:57;25.65;;;15.35;;
19026;SDS011;9646;52.034;5.554;2022-12-18T00:56:24;31.05;;;18.15;;
19026;SDS011;9646;52.034;5.554;2022-12-18T00:58:51;29.98;;;17.45;;
19026;SDS011;9646;52.034;5.554;2022-12-18T01:01:18;33.20;;;19.63;;
19026;SDS011;9646;52.034;5.554;2022-12-18T01:03:45;27.90;;;16.52;;
19026;SDS011;9646;52.034;5.554;2022-12-18T01:06:14;31.50;;;17.52;;
19026;SDS011;9646;52.034;5.554;2022-12-18T01:08:41;34.13;;;18.58;;
19026;SDS011;9646;52.034;5.554;2022-12-18T01:11:09;28.73;;;16.65;;
19026;SDS011;9646;52.034;5.554;2022-12-18T01:13:37;25.42;;;14.98;;
19026;SDS011;9646;52.034;5.554;2022-12-18T01:16:04;29.10;;;15.55;;
19026;SDS011;9646;52.034;5.554;2022-12-18T01:18:31;30.70;;;17.50;;
19026;SDS011;9646;52.034;5.554;2022-12-18T01:20:58;30.02;;;17.25;;
19026;SDS011;9646;52.034;5.554;2022-12-18T01:23:26;26.85;;;16.35;;
19026;SDS011;9646;52.034;5.554;2022-12-18T01:25:54;29.17;;;16.10;;
19026;SDS011;9646;52.034;5.554;2022-12-18T01:28:21;26.63;;;16.42;;
19026;SDS011;9646;52.034;5.554;2022-12-18T01:30:48;28.98;;;16.55;;
19026;SDS011;9646;52.034;5.554;2022-12-18T01:33:15;30.85;;;16.67;;
19026;SDS011;9646;52.034;5.554;2022-12-18T01:35:42;24.70;;;15.07;;
19026;SDS011;9646;52.034;5.554;2022-12-18T01:38:09;25.85;;;15.57;;
19026;SDS011;9646;52.034;5.554;2022-12-18T01:40:37;24.60;;;14.35;;
19026;SDS011;9646;52.034;5.554;2022-12-18T01:43:04;26.67;;;14.70;;
19026;SDS011;9646;52.034;5.554;2022-12-18T01:45:31;22.30;;;13.75;;
19026;SDS011;9646;52.034;5.554;2022-12-18T01:47:59;24.95;;;14.65;;
19026;SDS011;9646;52.034;5.554;2022-12-18T01:50:29;27.58;;;15.77;;
19026;SDS011;9646;52.034;5.554;2022-12-18T01:52:57;25.92;;;15.65;;
19026;SDS011;9646;52.034;5.554;2022-12-18T01:55:25;26.42;;;15.38;;
19026;SDS011;9646;52.034;5.554;2022-12-18T01:57:56;28.65;;;16.73;;
19026;SDS011;9646;52.034;5.554;2022-12-18T02:00:24;26.70;;;15.70;;
19026;SDS011;9646;52.034;5.554;2022-12-18T02:02:53;24.20;;;14.07;;
19026;SDS011;9646;52.034;5.554;2022-12-18T02:05:23;23.58;;;14.27;;
19026;SDS011;9646;52.034;5.554;2022-12-18T02:07:56;25.23;;;14.90;;
19026;SDS011;9646;52.034;5.554;2022-12-18T02:10:27;27.13;;;15.73;;
19026;SDS011;9646;52.034;5.554;2022-12-18T02:12:59;25.90;;;16.27;;
19026;SDS011;9646;52.034;5.554;2022-12-18T02:15:31;24.08;;;15.18;;
19026;SDS011;9646;52.034;5.554;2022-12-18T02:18:02;25.27;;;15.20;;
19026;SDS011;9646;52.034;5.554;2022-12-18T02:20:33;29.73;;;16.67;;
19026;SDS011;9646;52.034;5.554;2022-12-18T02:23:04;27.60;;;16.77;;
19026;SDS011;9646;52.034;5.554;2022-12-18T02:28:27;24.02;;;14.25;;
19026;SDS011;9646;52.034;5.554;2022-12-18T02:30:55;24.13;;;14.15;;
19026;SDS011;9646;52.034;5.554;2022-12-18T02:33:23;28.35;;;16.10;;
19026;SDS011;9646;52.034;5.554;2022-12-18T02:35:50;22.20;;;13.85;;
19026;SDS011;9646;52.034;5.554;2022-12-18T02:38:19;19.70;;;12.93;;
19026;SDS011;9646;52.034;5.554;2022-12-18T02:40:46;24.55;;;14.95;;
19026;SDS011;9646;52.034;5.554;2022-12-18T02:43:15;23.33;;;14.63;;
19026;SDS011;9646;52.034;5.554;2022-12-18T02:45:48;19.98;;;12.38;;
19026;SDS011;9646;52.034;5.554;2022-12-18T02:48:16;23.55;;;14.60;;
19026;SDS011;9646;52.034;5.554;2022-12-18T02:50:44;19.45;;;12.20;;
19026;SDS011;9646;52.034;5.554;2022-12-18T02:53:15;22.83;;;12.38;;
19026;SDS011;9646;52.034;5.554;2022-12-18T02:55:48;24.45;;;14.50;;
19026;SDS011;9646;52.034;5.554;2022-12-18T02:58:17;21.60;;;12.75;;
19026;SDS011;9646;52.034;5.554;2022-12-18T03:00:48;19.83;;;12.52;;
19026;SDS011;9646;52.034;5.554;2022-12-18T03:03:18;20.80;;;12.73;;
19026;SDS011;9646;52.034;5.554;2022-12-18T03:05:51;23.13;;;13.35;;
19026;SDS011;9646;52.034;5.554;2022-12-18T03:08:20;19.27;;;12.75;;
19026;SDS011;9646;52.034;5.554;2022-12-18T03:10:49;20.77;;;11.73;;
19026;SDS011;9646;52.034;5.554;2022-12-18T03:13:19;23.25;;;13.77;;
19026;SDS011;9646;52.034;5.554;2022-12-18T03:15:49;18.65;;;12.30;;
19026;SDS011;9646;52.034;5.554;2022-12-18T03:18:19;20.23;;;13.48;;
19026;SDS011;9646;52.034;5.554;2022-12-18T03:20:48;17.52;;;12.02;;
19026;SDS011;9646;52.034;5.554;2022-12-18T03:23:17;21.80;;;13.73;;
19026;SDS011;9646;52.034;5.554;2022-12-18T03:25:45;22.27;;;12.98;;
19026;SDS011;9646;52.034;5.554;2022-12-18T03:28:14;20.67;;;13.75;;
19026;SDS011;9646;52.034;5.554;2022-12-18T03:30:43;19.17;;;12.13;;
19026;SDS011;9646;52.034;5.554;2022-12-18T03:33:13;21.05;;;13.10;;
19026;SDS011;9646;52.034;5.554;2022-12-18T03:35:43;18.67;;;11.88;;
19026;SDS011;9646;52.034;5.554;2022-12-18T03:38:10;19.02;;;11.65;;
19026;SDS011;9646;52.034;5.554;2022-12-18T03:40:40;17.92;;;12.40;;
19026;SDS011;9646;52.034;5.554;2022-12-18T03:43:10;19.98;;;14.00;;
19026;SDS011;9646;52.034;5.554;2022-12-18T03:45:41;22.65;;;13.60;;
19026;SDS011;9646;52.034;5.554;2022-12-18T03:48:10;22.17;;;12.85;;
19026;SDS011;9646;52.034;5.554;2022-12-18T03:50:42;21.90;;;13.35;;
19026;SDS011;9646;52.034;5.554;2022-12-18T03:53:17;19.98;;;13.13;;
19026;SDS011;9646;52.034;5.554;2022-12-18T03:55:44;19.38;;;12.32;;
19026;SDS011;9646;52.034;5.554;2022-12-18T03:58:12;19.52;;;12.88;;
19026;SDS011;9646;52.034;5.554;2022-12-18T04:00:40;21.50;;;12.93;;
19026;SDS011;9646;52.034;5.554;2022-12-18T04:03:08;18.40;;;11.57;;
19026;SDS011;9646;52.034;5.554;2022-12-18T04:05:35;19.13;;;12.45;;
19026;SDS011;9646;52.034;5.554;2022-12-18T04:08:04;18.13;;;11.70;;
19026;SDS011;9646;52.034;5.554;2022-12-18T04:10:31;16.23;;;11.65;;
19026;SDS011;9646;52.034;5.554;2022-12-18T04:12:58;17.55;;;11.32;;
19026;SDS011;9646;52.034;5.554;2022-12-18T04:15:25;17.52;;;11.48;;
19026;SDS011;9646;52.034;5.554;2022-12-18T04:17:52;17.08;;;10.95;;
19026;SDS011;9646;52.034;5.554;2022-12-18T04:20:20;17.90;;;11.32;;
19026;SDS011;9646;52.034;5.554;2022-12-18T04:22:47;16.33;;;10.27;;
19026;SDS011;9646;52.034;5.554;2022-12-18T04:25:15;16.40;;;11.20;;
19026;SDS011;9646;52.034;5.554;2022-12-18T04:27:43;15.95;;;9.98;;
19026;SDS011;9646;52.034;5.554;2022-12-18T04:30:10;15.93;;;10.75;;
19026;SDS011;9646;52.034;5.554;2022-12-18T04:32:37;17.15;;;10.35;;
19026;SDS011;9646;52.034;5.554;2022-12-18T04:35:04;17.98;;;10.80;;
19026;SDS011;9646;52.034;5.554;2022-12-18T04:37:35;13.95;;;9.80;;
19026;SDS011;9646;52.034;5.554;2022-12-18T04:40:02;15.32;;;9.85;;
19026;SDS011;9646;52.034;5.554;2022-12-18T04:42:31;15.77;;;10.48;;
19026;SDS011;9646;52.034;5.554;2022-12-18T04:44:58;14.70;;;10.02;;
19026;SDS011;9646;52.034;5.554;2022-12-18T04:47:25;14.15;;;10.52;;
19026;SDS011;9646;52.034;5.554;2022-12-18T04:49:52;16.10;;;9.73;;
19026;SDS011;9646;52.034;5.554;2022-12-18T04:52:19;18.45;;;10.63;;
19026;SDS011;9646;52.034;5.554;2022-12-18T04:54:46;15.63;;;10.48;;
19026;SDS011;9646;52.034;5.554;2022-12-18T04:57:13;16.08;;;10.32;;
19026;SDS011;9646;52.034;5.554;2022-12-18T04:59:41;16.67;;;9.90;;
19026;SDS011;9646;52.034;5.554;2022-12-18T05:02:08;15.23;;;9.73;;
19026;SDS011;9646;52.034;5.554;2022-12-18T05:04:36;15.20;;;9.40;;
19026;SDS011;9646;52.034;5.554;2022-12-18T05:07:03;14.85;;;10.15;;
19026;SDS011;9646;52.034;5.554;2022-12-18T05:09:30;12.73;;;9.38;;
19026;SDS011;9646;52.034;5.554;2022-12-18T05:11:57;13.32;;;9.27;;
19026;SDS011;9646;52.034;5.554;2022-12-18T05:14:24;17.13;;;9.35;;
19026;SDS011;9646;52.034;5.554;2022-12-18T05:16:53;15.70;;;10.48;;
19026;SDS011;9646;52.034;5.554;2022-12-18T05:19:20;14.82;;;9.35;;
19026;SDS011;9646;52.034;5.554;2022-12-18T05:21:47;14.27;;;9.85;;
19026;SDS011;9646;52.034;5.554;2022-12-18T05:24:15;12.80;;;8.82;;
19026;SDS011;9646;52.034;5.554;2022-12-18T05:26:42;12.88;;;8.38;;
19026;SDS011;9646;52.034;5.554;2022-12-18T05:29:09;13.25;;;8.52;;
19026;SDS011;9646;52.034;5.554;2022-12-18T05:31:37;14.10;;;8.43;;
19026;SDS011;9646;52.034;5.554;2022-12-18T05:34:05;16.23;;;9.27;;
19026;SDS011;9646;52.034;5.554;2022-12-18T05:36:32;14.02;;;9.75;;
19026;SDS011;9646;52.034;5.554;2022-12-18T05:38:59;14.63;;;8.93;;
19026;SDS011;9646;52.034;5.554;2022-12-18T05:41:26;11.88;;;8.27;;
19026;SDS011;9646;52.034;5.554;2022-12-18T05:43:54;14.88;;;9.52;;
19026;SDS011;9646;52.034;5.554;2022-12-18T05:46:21;13.00;;;8.20;;
19026;SDS011;9646;52.034;5.554;2022-12-18T05:48:49;12.55;;;8.48;;
19026;SDS011;9646;52.034;5.554;2022-12-18T05:51:18;14.35;;;8.18;;
19026;SDS011;9646;52.034;5.554;2022-12-18T05:53:45;10.57;;;7.25;;
19026;SDS011;9646;52.034;5.554;2022-12-18T05:56:15;11.65;;;7.32;;
19026;SDS011;9646;52.034;5.554;2022-12-18T05:58:42;11.43;;;7.55;;
19026;SDS011;9646;52.034;5.554;2022-12-18T06:01:10;12.13;;;7.72;;
19026;SDS011;9646;52.034;5.554;2022-12-18T06:03:38;11.73;;;7.75;;
19026;SDS011;9646;52.034;5.554;2022-12-18T06:06:12;11.50;;;7.07;;
19026;SDS011;9646;52.034;5.554;2022-12-18T06:08:40;10.32;;;7.47;;
19026;SDS011;9646;52.034;5.554;2022-12-18T06:11:07;10.95;;;7.10;;
19026;SDS011;9646;52.034;5.554;2022-12-18T06:13:34;13.07;;;7.57;;
19026;SDS011;9646;52.034;5.554;2022-12-18T06:16:02;11.45;;;8.48;;
19026;SDS011;9646;52.034;5.554;2022-12-18T06:18:29;12.98;;;7.90;;
19026;SDS011;9646;52.034;5.554;2022-12-18T06:20:56;10.68;;;7.00;;
19026;SDS011;9646;52.034;5.554;2022-12-18T06:23:24;10.02;;;6.82;;
19026;SDS011;9646;52.034;5.554;2022-12-18T06:25:52;11.05;;;7.10;;
19026;SDS011;9646;52.034;5.554;2022-12-18T06:28:19;11.98;;;7.75;;
19026;SDS011;9646;52.034;5.554;2022-12-18T06:30:46;13.27;;;7.68;;
19026;SDS011;9646;52.034;5.554;2022-12-18T06:33:14;9.73;;;6.90;;
19026;SDS011;9646;52.034;5.554;2022-12-18T06:35:41;12.85;;;8.18;;
19026;SDS011;9646;52.034;5.554;2022-12-18T06:38:08;12.20;;;7.82;;
19026;SDS011;9646;52.034;5.554;2022-12-18T06:40:36;10.07;;;7.32;;
19026;SDS011;9646;52.034;5.554;2022-12-18T06:43:05;11.55;;;7.65;;
19026;SDS011;9646;52.034;5.554;2022-12-18T06:45:32;11.88;;;7.65;;
19026;SDS011;9646;52.034;5.554;2022-12-18T06:47:59;12.38;;;7.32;;
19026;SDS011;9646;52.034;5.554;2022-12-18T06:50:27;12.27;;;7.38;;
19026;SDS011;9646;52.034;5.554;2022-12-18T06:52:54;11.68;;;7.72;;
19026;SDS011;9646;52.034;5.554;2022-12-18T06:55:21;9.50;;;6.80;;
19026;SDS011;9646;52.034;5.554;2022-12-18T06:57:48;13.35;;;7.25;;
19026;SDS011;9646;52.034;5.554;2022-12-18T07:00:16;11.75;;;7.10;;
19026;SDS011;9646;52.034;5.554;2022-12-18T07:02:44;11.18;;;6.82;;
19026;SDS011;9646;52.034;5.554;2022-12-18T07:05:11;11.70;;;6.43;;
19026;SDS011;9646;52.034;5.554;2022-12-18T07:07:38;12.23;;;7.82;;
19026;SDS011;9646;52.034;5.554;2022-12-18T07:10:05;11.73;;;7.53;;
19026;SDS011;9646;52.034;5.554;2022-12-18T07:12:32;11.30;;;7.68;;
19026;SDS011;9646;52.034;5.554;2022-12-18T07:14:59;11.40;;;7.60;;
19026;SDS011;9646;52.034;5.554;2022-12-18T07:17:27;11.02;;;7.75;;
19026;SDS011;9646;52.034;5.554;2022-12-18T07:19:54;10.90;;;6.72;;
19026;SDS011;9646;52.034;5.554;2022-12-18T07:22:21;10.48;;;7.22;;
19026;SDS011;9646;52.034;5.554;2022-12-18T07:24:48;11.35;;;8.10;;
19026;SDS011;9646;52.034;5.554;2022-12-18T07:27:16;10.30;;;6.72;;
19026;SDS011;9646;52.034;5.554;2022-12-18T07:29:43;10.82;;;7.03;;
19026;SDS011;9646;52.034;5.554;2022-12-18T07:32:10;10.13;;;7.32;;
19026;SDS011;9646;52.034;5.554;2022-12-18T07:34:38;10.38;;;6.32;;
19026;SDS011;9646;52.034;5.554;2022-12-18T07:37:05;10.77;;;6.47;;
19026;SDS011;9646;52.034;5.554;2022-12-18T07:39:32;11.10;;;6.88;;
19026;SDS011;9646;52.034;5.554;2022-12-18T07:41:59;12.45;;;7.45;;
19026;SDS011;9646;52.034;5.554;2022-12-18T07:44:44;10.73;;;6.85;;
19026;SDS011;9646;52.034;5.554;2022-12-18T07:47:11;11.32;;;7.32;;
19026;SDS011;9646;52.034;5.554;2022-12-18T07:49:39;11.38;;;7.65;;
19026;SDS011;9646;52.034;5.554;2022-12-18T07:52:06;11.40;;;7.70;;
19026;SDS011;9646;52.034;5.554;2022-12-18T07:54:34;12.32;;;7.05;;
19026;SDS011;9646;52.034;5.554;2022-12-18T07:57:01;11.82;;;7.25;;
19026;SDS011;9646;52.034;5.554;2022-12-18T07:59:28;9.85;;;6.95;;
19026;SDS011;9646;52.034;5.554;2022-12-18T08:01:55;11.15;;;7.10;;
19026;SDS011;9646;52.034;5.554;2022-12-18T08:04:23;11.25;;;8.10;;
19026;SDS011;9646;52.034;5.554;2022-12-18T08:06:51;11.07;;;6.88;;
19026;SDS011;9646;52.034;5.554;2022-12-18T08:09:19;12.98;;;7.38;;
19026;SDS011;9646;52.034;5.554;2022-12-18T08:11:46;14.55;;;7.75;;
19026;SDS011;9646;52.034;5.554;2022-12-18T08:14:13;14.13;;;7.60;;
19026;SDS011;9646;52.034;5.554;2022-12-18T08:16:40;13.45;;;7.50;;
19026;SDS011;9646;52.034;5.554;2022-12-18T08:19:07;32.20;;;12.48;;
19026;SDS011;9646;52.034;5.554;2022-12-18T08:21:35;31.58;;;10.90;;
19026;SDS011;9646;52.034;5.554;2022-12-18T08:24:04;25.48;;;10.43;;
19026;SDS011;9646;52.034;5.554;2022-12-18T08:26:32;23.70;;;9.30;;
19026;SDS011;9646;52.034;5.554;2022-12-18T08:28:59;23.85;;;10.40;;
19026;SDS011;9646;52.034;5.554;2022-12-18T08:31:27;22.95;;;9.85;;
19026;SDS011;9646;52.034;5.554;2022-12-18T08:33:54;23.63;;;9.18;;
19026;SDS011;9646;52.034;5.554;2022-12-18T08:36:21;18.58;;;8.98;;
19026;SDS011;9646;52.034;5.554;2022-12-18T08:38:48;16.25;;;9.48;;
19026;SDS011;9646;52.034;5.554;2022-12-18T08:41:17;17.48;;;9.13;;
19026;SDS011;9646;52.034;5.554;2022-12-18T08:43:44;16.27;;;7.85;;
19026;SDS011;9646;52.034;5.554;2022-12-18T08:46:31;17.58;;;9.23;;
19026;SDS011;9646;52.034;5.554;2022-12-18T08:48:59;17.77;;;7.97;;
19026;SDS011;9646;52.034;5.554;2022-12-18T08:51:26;15.82;;;8.20;;
19026;SDS011;9646;52.034;5.554;2022-12-18T08:53:53;15.80;;;8.93;;
19026;SDS011;9646;52.034;5.554;2022-12-18T08:56:21;14.10;;;8.27;;
19026;SDS011;9646;52.034;5.554;2022-12-18T08:58:50;15.80;;;9.25;;
19026;SDS011;9646;52.034;5.554;2022-12-18T09:01:18;14.25;;;8.07;;
19026;SDS011;9646;52.034;5.554;2022-12-18T09:03:45;12.85;;;8.27;;
19026;SDS011;9646;52.034;5.554;2022-12-18T09:06:13;13.35;;;7.95;;
19026;SDS011;9646;52.034;5.554;2022-12-18T09:08:41;13.35;;;7.88;;
19026;SDS011;9646;52.034;5.554;2022-12-18T09:11:10;14.13;;;7.78;;
19026;SDS011;9646;52.034;5.554;2022-12-18T09:13:40;12.18;;;6.82;;
19026;SDS011;9646;52.034;5.554;2022-12-18T09:16:07;9.85;;;6.53;;
19026;SDS011;9646;52.034;5.554;2022-12-18T09:18:34;12.90;;;7.13;;
19026;SDS011;9646;52.034;5.554;2022-12-18T09:21:07;11.38;;;7.45;;
19026;SDS011;9646;52.034;5.554;2022-12-18T09:23:34;11.95;;;6.32;;
19026;SDS011;9646;52.034;5.554;2022-12-18T09:26:01;12.13;;;6.00;;
19026;SDS011;9646;52.034;5.554;2022-12-18T09:28:28;11.80;;;7.22;;
19026;SDS011;9646;52.034;5.554;2022-12-18T09:30:58;11.30;;;6.60;;
19026;SDS011;9646;52.034;5.554;2022-12-18T09:33:25;10.98;;;6.63;;
19026;SDS011;9646;52.034;5.554;2022-12-18T09:35:52;10.85;;;6.68;;
19026;SDS011;9646;52.034;5.554;2022-12-18T09:38:19;12.50;;;7.43;;
19026;SDS011;9646;52.034;5.554;2022-12-18T09:40:48;9.63;;;5.90;;
19026;SDS011;9646;52.034;5.554;2022-12-18T09:43:17;11.38;;;7.20;;
19026;SDS011;9646;52.034;5.554;2022-12-18T09:45:45;9.63;;;6.28;;
19026;SDS011;9646;52.034;5.554;2022-12-18T09:48:15;12.02;;;7.40;;
19026;SDS011;9646;52.034;5.554;2022-12-18T09:50:45;9.32;;;6.63;;
19026;SDS011;9646;52.034;5.554;2022-12-18T09:53:15;11.02;;;6.28;;
19026;SDS011;9646;52.034;5.554;2022-12-18T09:55:44;9.63;;;6.22;;
19026;SDS011;9646;52.034;5.554;2022-12-18T09:58:13;10.38;;;6.07;;
19026;SDS011;9646;52.034;5.554;2022-12-18T10:00:47;10.30;;;5.90;;
19026;SDS011;9646;52.034;5.554;2022-12-18T10:03:15;10.88;;;6.40;;
19026;SDS011;9646;52.034;5.554;2022-12-18T10:05:44;10.20;;;6.55;;
19026;SDS011;9646;52.034;5.554;2022-12-18T10:08:16;7.55;;;5.45;;
19026;SDS011;9646;52.034;5.554;2022-12-18T10:10:46;9.27;;;5.90;;
19026;SDS011;9646;52.034;5.554;2022-12-18T10:13:15;8.13;;;5.53;;
19026;SDS011;9646;52.034;5.554;2022-12-18T10:15:50;9.00;;;5.78;;
19026;SDS011;9646;52.034;5.554;2022-12-18T10:18:24;8.75;;;5.28;;
19026;SDS011;9646;52.034;5.554;2022-12-18T10:21:05;8.32;;;5.53;;
19026;SDS011;9646;52.034;5.554;2022-12-18T10:23:37;8.18;;;5.45;;
19026;SDS011;9646;52.034;5.554;2022-12-18T10:26:07;9.23;;;6.15;;
19026;SDS011;9646;52.034;5.554;2022-12-18T10:28:35;8.85;;;5.97;;
19026;SDS011;9646;52.034;5.554;2022-12-18T10:31:07;8.07;;;4.97;;
19026;SDS011;9646;52.034;5.554;2022-12-18T10:33:35;7.45;;;4.82;;
19026;SDS011;9646;52.034;5.554;2022-12-18T10:36:02;9.02;;;6.05;;
19026;SDS011;9646;52.034;5.554;2022-12-18T10:38:31;7.80;;;5.05;;
19026;SDS011;9646;52.034;5.554;2022-12-18T10:40:59;10.07;;;5.22;;
19026;SDS011;9646;52.034;5.554;2022-12-18T10:43:28;9.45;;;5.40;;
19026;SDS011;9646;52.034;5.554;2022-12-18T10:48:48;8.15;;;5.20;;
19026;SDS011;9646;52.034;5.554;2022-12-18T10:51:21;10.35;;;6.70;;
19026;SDS011;9646;52.034;5.554;2022-12-18T10:53:51;8.02;;;4.97;;
19026;SDS011;9646;52.034;5.554;2022-12-18T10:56:20;8.48;;;5.47;;
19026;SDS011;9646;52.034;5.554;2022-12-18T10:58:55;7.55;;;5.55;;
19026;SDS011;9646;52.034;5.554;2022-12-18T11:01:22;8.98;;;6.05;;
19026;SDS011;9646;52.034;5.554;2022-12-18T11:03:59;9.57;;;6.32;;
19026;SDS011;9646;52.034;5.554;2022-12-18T11:06:27;10.30;;;6.05;;
19026;SDS011;9646;52.034;5.554;2022-12-18T11:08:57;8.77;;;5.72;;
19026;SDS011;9646;52.034;5.554;2022-12-18T11:11:25;7.75;;;5.18;;
19026;SDS011;9646;52.034;5.554;2022-12-18T11:14:00;9.63;;;5.50;;
19026;SDS011;9646;52.034;5.554;2022-12-18T11:16:28;8.93;;;5.03;;
19026;SDS011;9646;52.034;5.554;2022-12-18T11:19:08;7.82;;;5.63;;
19026;SDS011;9646;52.034;5.554;2022-12-18T11:21:38;7.78;;;5.43;;
19026;SDS011;9646;52.034;5.554;2022-12-18T11:24:07;8.80;;;5.38;;
19026;SDS011;9646;52.034;5.554;2022-12-18T11:26:42;6.65;;;4.68;;
19026;SDS011;9646;52.034;5.554;2022-12-18T11:29:09;8.20;;;5.78;;
19026;SDS011;9646;52.034;5.554;2022-12-18T11:31:37;7.75;;;5.55;;
19026;SDS011;9646;52.034;5.554;2022-12-18T11:34:05;9.05;;;5.85;;
19026;SDS011;9646;52.034;5.554;2022-12-18T11:36:38;7.78;;;5.38;;
19026;SDS011;9646;52.034;5.554;2022-12-18T11:39:09;9.88;;;6.57;;
19026;SDS011;9646;52.034;5.554;2022-12-18T11:41:39;7.68;;;5.30;;
19026;SDS011;9646;52.034;5.554;2022-12-18T11:44:28;8.90;;;5.90;;
19026;SDS011;9646;52.034;5.554;2022-12-18T11:46:59;7.90;;;5.10;;
19026;SDS011;9646;52.034;5.554;2022-12-18T11:49:28;7.18;;;4.97;;
19026;SDS011;9646;52.034;5.554;2022-12-18T11:52:00;9.05;;;5.80;;
19026;SDS011;9646;52.034;5.554;2022-12-18T11:54:31;8.68;;;5.65;;
19026;SDS011;9646;52.034;5.554;2022-12-18T11:57:01;9.02;;;5.20;;
19026;SDS011;9646;52.034;5.554;2022-12-18T11:59:32;8.55;;;6.03;;
19026;SDS011;9646;52.034;5.554;2022-12-18T12:02:02;11.13;;;6.32;;
19026;SDS011;9646;52.034;5.554;2022-12-18T12:04:46;8.10;;;5.35;;
19026;SDS011;9646;52.034;5.554;2022-12-18T12:07:19;11.68;;;7.78;;
19026;SDS011;9646;52.034;5.554;2022-12-18T12:09:50;12.05;;;7.13;;
19026;SDS011;9646;52.034;5.554;2022-12-18T12:12:25;8.55;;;5.80;;
19026;SDS011;9646;52.034;5.554;2022-12-18T12:14:56;11.38;;;7.05;;
19026;SDS011;9646;52.034;5.554;2022-12-18T12:17:28;10.20;;;6.32;;
19026;SDS011;9646;52.034;5.554;2022-12-18T12:20:00;9.38;;;6.13;;
19026;SDS011;9646;52.034;5.554;2022-12-18T12:22:32;9.15;;;6.03;;
19026;SDS011;9646;52.034;5.554;2022-12-18T12:25:06;9.38;;;6.30;;
19026;SDS011;9646;52.034;5.554;2022-12-18T12:27:42;8.35;;;5.55;;
19026;SDS011;9646;52.034;5.554;2022-12-18T12:30:16;8.90;;;6.03;;
19026;SDS011;9646;52.034;5.554;2022-12-18T12:32:57;8.60;;;5.65;;
19026;SDS011;9646;52.034;5.554;2022-12-18T12:35:32;7.93;;;5.53;;
19026;SDS011;9646;52.034;5.554;2022-12-18T12:38:06;7.18;;;5.03;;
19026;SDS011;9646;52.034;5.554;2022-12-18T12:40:39;8.77;;;5.68;;
19026;SDS011;9646;52.034;5.554;2022-12-18T12:43:12;9.52;;;6.35;;
19026;SDS011;9646;52.034;5.554;2022-12-18T12:45:42;10.05;;;5.82;;
19026;SDS011;9646;52.034;5.554;2022-12-18T12:48:15;8.93;;;5.90;;
19026;SDS011;9646;52.034;5.554;2022-12-18T12:50:43;7.95;;;5.43;;
19026;SDS011;9646;52.034;5.554;2022-12-18T12:53:14;8.68;;;6.07;;
19026;SDS011;9646;52.034;5.554;2022-12-18T12:55:44;10.70;;;6.70;;
19026;SDS011;9646;52.034;5.554;2022-12-18T12:58:13;9.35;;;6.88;;
19026;SDS011;9646;52.034;5.554;2022-12-18T13:00:44;7.35;;;5.68;;
19026;SDS011;9646;52.034;5.554;2022-12-18T13:03:15;9.05;;;6.13;;
19026;SDS011;9646;52.034;5.554;2022-12-18T13:05:48;19.10;;;10.38;;
19026;SDS011;9646;52.034;5.554;2022-12-18T13:08:23;9.70;;;6.70;;
19026;SDS011;9646;52.034;5.554;2022-12-18T13:10:53;8.45;;;5.82;;
19026;SDS011;9646;52.034;5.554;2022-12-18T13:16:24;8.40;;;5.95;;
19026;SDS011;9646;52.034;5.554;2022-12-18T13:18:52;10.05;;;6.00;;
19026;SDS011;9646;52.034;5.554;2022-12-18T13:21:23;9.25;;;5.80;;
19026;SDS011;9646;52.034;5.554;2022-12-18T13:23:53;8.32;;;5.55;;
19026;SDS011;9646;52.034;5.554;2022-12-18T13:26:31;10.45;;;6.53;;
19026;SDS011;9646;52.034;5.554;2022-12-18T13:28:59;9.18;;;6.10;;
19026;SDS011;9646;52.034;5.554;2022-12-18T13:34:15;10.35;;;6.47;;
19026;SDS011;9646;52.034;5.554;2022-12-18T13:36:43;9.68;;;6.43;;
19026;SDS011;9646;52.034;5.554;2022-12-18T13:39:20;8.73;;;5.93;;
19026;SDS011;9646;52.034;5.554;2022-12-18T13:41:48;10.40;;;6.07;;
19026;SDS011;9646;52.034;5.554;2022-12-18T13:44:21;9.50;;;6.45;;
19026;SDS011;9646;52.034;5.554;2022-12-18T13:46:51;10.38;;;5.80;;
19026;SDS011;9646;52.034;5.554;2022-12-18T13:49:21;8.65;;;6.38;;
19026;SDS011;9646;52.034;5.554;2022-12-18T13:51:49;9.40;;;6.90;;
19026;SDS011;9646;52.034;5.554;2022-12-18T13:54:19;12.02;;;7.03;;
19026;SDS011;9646;52.034;5.554;2022-12-18T13:56:48;10.10;;;6.38;;
19026;SDS011;9646;52.034;5.554;2022-12-18T13:59:17;11.50;;;6.93;;
19026;SDS011;9646;52.034;5.554;2022-12-18T14:01:46;10.07;;;6.40;;
19026;SDS011;9646;52.034;5.554;2022-12-18T14:04:18;10.15;;;6.53;;
19026;SDS011;9646;52.034;5.554;2022-12-18T14:06:46;10.25;;;6.82;;
19026;SDS011;9646;52.034;5.554;2022-12-18T14:09:14;9.70;;;6.18;;
19026;SDS011;9646;52.034;5.554;2022-12-18T14:11:47;9.55;;;6.10;;
19026;SDS011;9646;52.034;5.554;2022-12-18T14:14:17;11.10;;;7.05;;
19026;SDS011;9646;52.034;5.554;2022-12-18T14:16:45;11.80;;;7.10;;
19026;SDS011;9646;52.034;5.554;2022-12-18T14:19:14;9.13;;;6.20;;
19026;SDS011;9646;52.034;5.554;2022-12-18T14:21:45;8.82;;;6.07;;
19026;SDS011;9646;52.034;5.554;2022-12-18T14:24:13;14.88;;;7.40;;
19026;SDS011;9646;52.034;5.554;2022-12-18T14:26:41;8.30;;;5.57;;
19026;SDS011;9646;52.034;5.554;2022-12-18T14:29:20;9.63;;;6.53;;
19026;SDS011;9646;52.034;5.554;2022-12-18T14:34:29;8.82;;;5.88;;
19026;SDS011;9646;52.034;5.554;2022-12-18T14:36:56;12.38;;;7.53;;
19026;SDS011;9646;52.034;5.554;2022-12-18T14:39:23;10.77;;;6.93;;
19026;SDS011;9646;52.034;5.554;2022-12-18T14:41:51;13.40;;;7.70;;
19026;SDS011;9646;52.034;5.554;2022-12-18T14:44:19;11.73;;;7.50;;
19026;SDS011;9646;52.034;5.554;2022-12-18T14:46:48;12.02;;;8.65;;
19026;SDS011;9646;52.034;5.554;2022-12-18T14:49:18;10.25;;;7.07;;
19026;SDS011;9646;52.034;5.554;2022-12-18T14:51:47;9.10;;;6.10;;
19026;SDS011;9646;52.034;5.554;2022-12-18T14:54:16;9.23;;;6.43;;
19026;SDS011;9646;52.034;5.554;2022-12-18T14:56:44;11.95;;;7.60;;
19026;SDS011;9646;52.034;5.554;2022-12-18T14:59:13;11.32;;;6.75;;
19026;SDS011;9646;52.034;5.554;2022-12-18T15:01:46;9.32;;;6.75;;
19026;SDS011;9646;52.034;5.554;2022-12-18T15:04:23;9.38;;;5.60;;
19026;SDS011;9646;52.034;5.554;2022-12-18T15:07:02;11.68;;;8.10;;
19026;SDS011;9646;52.034;5.554;2022-12-18T15:09:29;13.82;;;10.02;;
19026;SDS011;9646;52.034;5.554;2022-12-18T15:11:57;10.60;;;7.15;;